createdAt,value
2018-11-20T00:00:01.997Z,101093.00
2018-11-20T00:03:09.110Z,101070.00
2018-11-20T00:06:10.008Z,101080.00
2018-11-20T00:08:53.545Z,101087.00
2018-11-20T00:11:34.436Z,101074.00
2018-11-20T00:14:21.897Z,101072.00
2018-11-20T00:17:04.407Z,101071.00
2018-11-20T00:19:56.131Z,101067.00
2018-11-20T00:22:51.130Z,101062.00
2018-11-20T00:25:38.983Z,101063.00
2018-11-20T00:28:33.124Z,101067.00
2018-11-20T00:31:13.629Z,101054.00
2018-11-20T00:34:02.788Z,101062.00
2018-11-20T00:36:53.385Z,101053.00
2018-11-20T00:39:39.806Z,101058.00
2018-11-20T00:42:34.884Z,101055.00
2018-11-20T00:45:33.089Z,101050.00
2018-11-20T00:48:22.300Z,101046.00
2018-11-20T00:51:10.787Z,101057.00
2018-11-20T00:54:09.160Z,101051.00
2018-11-20T00:57:04.328Z,101057.00
2018-11-20T00:59:54.275Z,101039.00
2018-11-20T01:02:43.478Z,101040.00
2018-11-20T01:05:44.347Z,101038.00
2018-11-20T01:08:36.269Z,101028.00
2018-11-20T01:11:28.158Z,101027.00
2018-11-20T01:14:29.041Z,101028.00
2018-11-20T01:17:33.119Z,101016.00
2018-11-20T01:20:19.858Z,101017.00
2018-11-20T01:23:08.123Z,101018.00
2018-11-20T01:26:00.147Z,101008.00
2018-11-20T01:28:51.839Z,101003.00
2018-11-20T01:31:37.702Z,101011.00
2018-11-20T01:34:45.041Z,100999.00
2018-11-20T01:37:37.008Z,101001.00
2018-11-20T01:40:38.405Z,100993.00
2018-11-20T01:43:27.493Z,100997.00
2018-11-20T01:46:16.810Z,100998.00
2018-11-20T01:49:06.025Z,100988.00
2018-11-20T01:51:53.935Z,100990.00
2018-11-20T01:54:41.961Z,100972.00
2018-11-20T01:57:33.932Z,100975.00
2018-11-20T02:00:21.759Z,100979.00
2018-11-20T02:03:18.755Z,100966.00
2018-11-20T02:06:11.190Z,100964.00
2018-11-20T02:09:00.247Z,100965.00
2018-11-20T02:11:43.792Z,100959.00
2018-11-20T02:14:47.614Z,100956.00
2018-11-20T02:17:54.955Z,100959.00
2018-11-20T02:20:35.556Z,100947.00
2018-11-20T02:23:32.315Z,100954.00
2018-11-20T02:26:35.272Z,100940.00
2018-11-20T02:29:26.305Z,100929.00
2018-11-20T02:32:13.903Z,100937.00
2018-11-20T02:35:01.357Z,100934.00
2018-11-20T02:37:53.105Z,100918.00
2018-11-20T02:40:46.528Z,100915.00
2018-11-20T02:43:44.603Z,100912.00
2018-11-20T02:46:51.857Z,100902.00
2018-11-20T02:49:41.043Z,100907.00
2018-11-20T02:52:19.737Z,100899.00
2018-11-20T02:55:20.636Z,100875.00
2018-11-20T02:58:15.480Z,100891.00
2018-11-20T03:01:15.157Z,100878.00
2018-11-20T03:04:19.131Z,100892.00
2018-11-20T03:07:11.459Z,100878.00
2018-11-20T03:10:06.490Z,100886.00
2018-11-20T03:12:58.483Z,100893.00
2018-11-20T03:15:53.485Z,100861.00
2018-11-20T03:18:41.099Z,100875.00
2018-11-20T03:21:30.320Z,100878.00
2018-11-20T03:24:12.415Z,100892.00
2018-11-20T03:27:04.509Z,100876.00
2018-11-20T03:31:01.458Z,100879.00
2018-11-20T03:34:06.083Z,100879.00
2018-11-20T03:37:06.779Z,100864.00
2018-11-20T03:39:54.274Z,100873.00
2018-11-20T03:42:58.623Z,100869.00
2018-11-20T03:45:47.927Z,100863.00
2018-11-20T03:48:35.612Z,100857.00
2018-11-20T03:51:25.820Z,100867.00
2018-11-20T03:54:32.924Z,100855.00
2018-11-20T03:57:28.121Z,100860.00
2018-11-20T04:00:20.179Z,100858.00
2018-11-20T04:03:12.128Z,100862.00
2018-11-20T04:06:04.122Z,100855.00
2018-11-20T04:08:58.940Z,100859.00
2018-11-20T04:11:56.885Z,100864.00
2018-11-20T04:14:44.726Z,100859.00
2018-11-20T04:17:33.841Z,100856.00
2018-11-20T04:20:28.976Z,100857.00
2018-11-20T04:23:16.630Z,100866.00
2018-11-20T04:26:04.285Z,100858.00
2018-11-20T04:29:05.334Z,100862.00
2018-11-20T04:32:23.753Z,100864.00
2018-11-20T04:35:13.672Z,100855.00
2018-11-20T04:38:02.680Z,100851.00
2018-11-20T04:40:48.889Z,100860.00
2018-11-20T04:43:40.574Z,100861.00
2018-11-20T04:46:36.222Z,100866.00
2018-11-20T04:49:43.859Z,100865.00
2018-11-20T04:52:42.570Z,100853.00
2018-11-20T04:55:43.186Z,100857.00
2018-11-20T04:58:24.009Z,100850.00
2018-11-20T05:01:12.300Z,100849.00
2018-11-20T05:04:13.269Z,100865.00
2018-11-20T05:07:01.010Z,100845.00
2018-11-20T05:09:55.924Z,100847.00
2018-11-20T05:12:45.100Z,100848.00
2018-11-20T05:15:32.812Z,100855.00
2018-11-20T05:18:20.449Z,100844.00
2018-11-20T05:21:12.217Z,100861.00
2018-11-20T05:24:00.119Z,100859.00
2018-11-20T05:26:57.951Z,100861.00
2018-11-20T05:29:50.038Z,100862.00
2018-11-20T05:32:39.136Z,100874.00
2018-11-20T05:35:33.778Z,100863.00
2018-11-20T05:38:22.936Z,100865.00
2018-11-20T05:41:13.077Z,100876.00
2018-11-20T05:43:59.972Z,100887.00
2018-11-20T05:46:48.891Z,100869.00
2018-11-20T05:49:43.731Z,100892.00
2018-11-20T05:52:37.407Z,100870.00
2018-11-20T05:55:28.160Z,100885.00
2018-11-20T05:58:07.051Z,100894.00
2018-11-20T06:00:54.694Z,100896.00
2018-11-20T06:03:43.944Z,100879.00
2018-11-20T06:06:48.501Z,100893.00
2018-11-20T06:09:43.570Z,100896.00
2018-11-20T06:12:31.445Z,100887.00
2018-11-20T06:15:32.454Z,100901.00
2018-11-20T06:18:24.452Z,100889.00
2018-11-20T06:21:19.378Z,100874.00
2018-11-20T06:24:06.701Z,100882.00
2018-11-20T06:26:54.339Z,100891.00
2018-11-20T06:29:45.976Z,100885.00
2018-11-20T06:32:53.319Z,100877.00
2018-11-20T06:35:48.235Z,100880.00
2018-11-20T06:38:35.510Z,100873.00
2018-11-20T06:41:39.490Z,100874.00
2018-11-20T06:44:28.433Z,100877.00
2018-11-20T06:47:18.208Z,100889.00
2018-11-20T06:50:05.837Z,100887.00
2018-11-20T06:53:07.067Z,100877.00
2018-11-20T06:56:04.611Z,100879.00
2018-11-20T06:58:48.700Z,100876.00
2018-11-20T07:01:55.883Z,100869.00
2018-11-20T07:04:50.722Z,100886.00
2018-11-20T07:07:38.653Z,100867.00
2018-11-20T07:10:26.406Z,100863.00
2018-11-20T07:13:26.168Z,100858.00
2018-11-20T07:16:41.942Z,100854.00
2018-11-20T07:19:46.310Z,100854.00
2018-11-20T07:22:40.025Z,100856.00
2018-11-20T07:25:27.928Z,100851.00
2018-11-20T07:28:16.724Z,100853.00
2018-11-20T07:31:06.162Z,100845.00
2018-11-20T07:33:55.423Z,100851.00
2018-11-20T07:36:59.904Z,100838.00
2018-11-20T07:39:39.701Z,100846.00
2018-11-20T07:42:27.432Z,100837.00
2018-11-20T07:45:14.976Z,100831.00
2018-11-20T07:48:10.490Z,100823.00
2018-11-20T07:50:58.252Z,100827.00
2018-11-20T07:53:46.557Z,100813.00
2018-11-20T07:56:34.378Z,100812.00
2018-11-20T07:59:22.554Z,100821.00
2018-11-20T08:02:27.124Z,100812.00
2018-11-20T08:05:14.549Z,100817.00
2018-11-20T08:08:09.104Z,100810.00
2018-11-20T08:11:04.746Z,100803.00
2018-11-20T08:13:57.036Z,100785.00
2018-11-20T08:16:46.593Z,100793.00
2018-11-20T08:19:45.268Z,100813.00
2018-11-20T08:22:43.269Z,100800.00
2018-11-20T08:25:50.691Z,100802.00
2018-11-20T08:28:38.928Z,100801.00
2018-11-20T08:31:27.099Z,100810.00
2018-11-20T08:34:19.187Z,100809.00
2018-11-20T08:37:08.985Z,100807.00
2018-11-20T08:40:01.538Z,100808.00
2018-11-20T08:42:49.375Z,100810.00
2018-11-20T08:45:46.677Z,100807.00
2018-11-20T08:48:44.978Z,100829.00
2018-11-20T08:51:46.543Z,100821.00
2018-11-20T08:54:40.085Z,100822.00
2018-11-20T08:57:26.421Z,100807.00
2018-11-20T09:00:08.150Z,100807.00
2018-11-20T09:02:57.827Z,100805.00
2018-11-20T09:05:52.964Z,100806.00
2018-11-20T09:08:47.708Z,100801.00
2018-11-20T09:11:42.815Z,100797.00
2018-11-20T09:14:30.798Z,100798.00
2018-11-20T09:17:32.131Z,100806.00
2018-11-20T09:20:19.884Z,100797.00
2018-11-20T09:23:21.246Z,100789.00
2018-11-20T09:26:03.219Z,100796.00
2018-11-20T09:28:55.519Z,100799.00
2018-11-20T09:31:43.717Z,100800.00
2018-11-20T09:34:39.153Z,100798.00
2018-11-20T09:37:31.455Z,100780.00
2018-11-20T09:40:57.982Z,100786.00
2018-11-20T09:44:18.365Z,100776.00
2018-11-20T09:47:06.741Z,100780.00
2018-11-20T09:50:01.899Z,100783.00
2018-11-20T09:53:04.303Z,100773.00
2018-11-20T09:56:03.041Z,100768.00
2018-11-20T09:58:54.925Z,100752.00
2018-11-20T10:01:40.443Z,100764.00
2018-11-20T10:04:31.241Z,100751.00
2018-11-20T10:07:29.126Z,100749.00
2018-11-20T10:10:36.881Z,100752.00
2018-11-20T10:13:38.223Z,100742.00
2018-11-20T10:16:32.911Z,100741.00
2018-11-20T10:19:40.286Z,100743.00
2018-11-20T10:22:33.595Z,100732.00
2018-11-20T10:25:29.292Z,100723.00
2018-11-20T10:28:16.909Z,100721.00
2018-11-20T10:31:05.206Z,100720.00
2018-11-20T10:34:02.502Z,100711.00
2018-11-20T10:37:00.911Z,100702.00
2018-11-20T10:39:55.957Z,100712.00
2018-11-20T10:42:57.832Z,100701.00
2018-11-20T10:45:47.108Z,100707.00
2018-11-20T10:48:34.957Z,100709.00
2018-11-20T10:51:20.284Z,100715.00
2018-11-20T10:54:08.662Z,100704.00
2018-11-20T10:56:59.120Z,100705.00
2018-11-20T10:59:51.561Z,100701.00
2018-11-20T11:02:39.485Z,100696.00
2018-11-20T11:05:34.218Z,100689.00
2018-11-20T11:08:22.330Z,100689.00
2018-11-20T11:11:11.653Z,100684.00
2018-11-20T11:14:07.211Z,100684.00
2018-11-20T11:17:05.358Z,100677.00
2018-11-20T11:20:02.879Z,100680.00
2018-11-20T11:22:53.142Z,100673.00
2018-11-20T11:25:45.415Z,100667.00
2018-11-20T11:28:40.537Z,100679.00
2018-11-20T11:31:28.294Z,100673.00
2018-11-20T11:34:16.766Z,100667.00
2018-11-20T11:37:00.855Z,100664.00
2018-11-20T11:39:50.366Z,100660.00
2018-11-20T11:42:45.353Z,100657.00
2018-11-20T11:45:39.483Z,100662.00
2018-11-20T11:48:29.439Z,100654.00
2018-11-20T11:51:15.522Z,100644.00
2018-11-20T11:53:59.620Z,100645.00
2018-11-20T11:56:58.273Z,100631.00
2018-11-20T11:59:46.617Z,100638.00
2018-11-20T12:05:40.957Z,100627.00
2018-11-20T12:08:39.465Z,100630.00
2018-11-20T12:11:27.301Z,100630.00
2018-11-20T12:14:19.109Z,100620.00
2018-11-20T12:17:28.997Z,100625.00
2018-11-20T12:20:16.879Z,100628.00
2018-11-20T12:23:15.462Z,100622.00
2018-11-20T12:26:13.838Z,100614.00
2018-11-20T12:29:17.113Z,100626.00
2018-11-20T12:32:06.395Z,100614.00
2018-11-20T12:35:06.032Z,100601.00
2018-11-20T12:37:49.024Z,100594.00
2018-11-20T12:40:38.636Z,100587.00
2018-11-20T12:43:26.619Z,100590.00
2018-11-20T12:46:15.942Z,100580.00
2018-11-20T12:49:07.912Z,100579.00
2018-11-20T12:51:56.163Z,100562.00
2018-11-20T12:54:52.449Z,100554.00
2018-11-20T12:58:38.257Z,100564.00
2018-11-20T13:01:44.969Z,100564.00
2018-11-20T13:04:42.126Z,100561.00
2018-11-20T13:07:24.663Z,100563.00
2018-11-20T13:10:11.503Z,100572.00
2018-11-20T13:13:05.773Z,100550.00
2018-11-20T13:15:53.469Z,100551.00
2018-11-20T13:18:41.108Z,100564.00
2018-11-20T13:21:28.459Z,100566.00
2018-11-20T13:24:09.745Z,100576.00
2018-11-20T13:27:15.707Z,100564.00
2018-11-20T13:30:04.066Z,100581.00
2018-11-20T13:32:52.379Z,100560.00
2018-11-20T13:35:39.481Z,100551.00
2018-11-20T13:38:19.632Z,100571.00
2018-11-20T13:41:44.161Z,100563.00
2018-11-20T13:44:35.429Z,100552.00
2018-11-20T13:47:33.389Z,100545.00
2018-11-20T13:50:21.736Z,100557.00
2018-11-20T13:53:13.090Z,100555.00
2018-11-20T13:56:01.429Z,100542.00
2018-11-20T13:58:55.231Z,100548.00
2018-11-20T14:01:46.487Z,100560.00
2018-11-20T14:04:40.830Z,100553.00
2018-11-20T14:07:28.019Z,100559.00
2018-11-20T14:10:28.477Z,100546.00
2018-11-20T14:13:19.817Z,100536.00
2018-11-20T14:16:06.901Z,100546.00
2018-11-20T14:18:58.603Z,100552.00
2018-11-20T14:21:45.875Z,100545.00
2018-11-20T14:24:49.900Z,100554.00
2018-11-20T14:27:49.838Z,100543.00
2018-11-20T14:30:45.586Z,100544.00
2018-11-20T14:33:39.743Z,100548.00
2018-11-20T14:36:26.754Z,100538.00
2018-11-20T14:39:18.501Z,100540.00
2018-11-20T14:42:05.938Z,100545.00
2018-11-20T14:45:00.292Z,100541.00
2018-11-20T14:47:49.130Z,100545.00
2018-11-20T14:50:46.518Z,100536.00
2018-11-20T14:53:41.861Z,100546.00
2018-11-20T14:56:42.166Z,100559.00
2018-11-20T14:59:36.860Z,100556.00
2018-11-20T15:02:43.720Z,100555.00
2018-11-20T15:05:30.432Z,100560.00
2018-11-20T15:08:17.310Z,100566.00
2018-11-20T15:11:08.338Z,100559.00
2018-11-20T15:14:02.798Z,100565.00
2018-11-20T15:16:49.786Z,100552.00
2018-11-20T15:19:37.931Z,100554.00
2018-11-20T15:22:32.659Z,100546.00
2018-11-20T15:25:21.527Z,100551.00
2018-11-20T15:28:03.777Z,100545.00
2018-11-20T15:30:50.427Z,100541.00
2018-11-20T15:33:26.946Z,100548.00
2018-11-20T15:36:15.154Z,100546.00
2018-11-20T15:39:12.022Z,100557.00
2018-11-20T15:41:58.885Z,100556.00
2018-11-20T15:44:47.134Z,100571.00
2018-11-20T15:47:38.088Z,100578.00
2018-11-20T15:50:31.094Z,100577.00
2018-11-20T15:53:17.994Z,100578.00
2018-11-20T15:56:15.310Z,100572.00
2018-11-20T15:59:03.572Z,100566.00
2018-11-20T16:01:57.563Z,100576.00
2018-11-20T16:04:52.012Z,100583.00
2018-11-20T16:07:38.921Z,100587.00
2018-11-20T16:10:26.092Z,100593.00
2018-11-20T16:13:20.296Z,100591.00
2018-11-20T16:16:17.506Z,100591.00
2018-11-20T16:19:05.751Z,100609.00
2018-11-20T16:21:48.200Z,100617.00
2018-11-20T16:24:51.604Z,100615.00
2018-11-20T16:27:43.830Z,100629.00
2018-11-20T16:30:30.858Z,100627.00
2018-11-20T16:33:19.050Z,100638.00
2018-11-20T16:36:05.818Z,100632.00
2018-11-20T16:38:52.814Z,100625.00
2018-11-20T16:41:42.166Z,100634.00
2018-11-20T16:44:27.064Z,100639.00
2018-11-20T16:47:13.923Z,100632.00
2018-11-20T16:50:07.782Z,100638.00
2018-11-20T16:53:11.119Z,100651.00
2018-11-20T16:56:08.171Z,100649.00
2018-11-20T16:59:04.184Z,100650.00
2018-11-20T17:01:51.422Z,100634.00
2018-11-20T17:04:54.669Z,100632.00
2018-11-20T17:07:56.197Z,100635.00
2018-11-20T17:10:39.734Z,100635.00
2018-11-20T17:13:36.984Z,100640.00
2018-11-20T17:16:40.334Z,100650.00
2018-11-20T17:19:34.151Z,100646.00
2018-11-20T17:22:25.515Z,100648.00
2018-11-20T17:25:05.764Z,100658.00
2018-11-20T17:27:57.644Z,100651.00
2018-11-20T17:30:44.368Z,100648.00
2018-11-20T17:33:51.124Z,100651.00
2018-11-20T17:36:47.977Z,100655.00
2018-11-20T17:39:45.482Z,100658.00
2018-11-20T17:42:43.538Z,100651.00
2018-11-20T17:45:34.310Z,100655.00
2018-11-20T17:48:25.168Z,100646.00
2018-11-20T17:51:14.156Z,100655.00
2018-11-20T17:54:17.533Z,100656.00
2018-11-20T17:57:11.663Z,100651.00
2018-11-20T17:59:59.911Z,100661.00
2018-11-20T18:02:54.626Z,100660.00
2018-11-20T18:05:40.463Z,100640.00
2018-11-20T18:08:31.413Z,100653.00
2018-11-20T18:11:26.459Z,100640.00
2018-11-20T18:14:17.531Z,100648.00
2018-11-20T18:17:08.580Z,100658.00
2018-11-20T18:19:52.562Z,100659.00
2018-11-20T18:22:47.019Z,100648.00
2018-11-20T18:25:53.615Z,100655.00
2018-11-20T18:28:40.339Z,100656.00
2018-11-20T18:31:27.213Z,100662.00
2018-11-20T18:34:15.419Z,100673.00
2018-11-20T18:37:02.078Z,100682.00
2018-11-20T18:40:08.531Z,100686.00
2018-11-20T18:42:54.599Z,100687.00
2018-11-20T18:45:45.853Z,100690.00
2018-11-20T18:48:32.941Z,100692.00
2018-11-20T18:51:29.944Z,100695.00
2018-11-20T18:54:18.689Z,100697.00
2018-11-20T18:57:05.245Z,100696.00
2018-11-20T18:59:52.190Z,100695.00
2018-11-20T19:02:49.491Z,100696.00
2018-11-20T19:05:37.752Z,100698.00
2018-11-20T19:08:28.511Z,100690.00
2018-11-20T19:11:31.689Z,100694.00
2018-11-20T19:14:35.067Z,100703.00
2018-11-20T19:17:38.136Z,100704.00
2018-11-20T19:20:26.379Z,100699.00
2018-11-20T19:23:13.528Z,100703.00
2018-11-20T19:25:52.387Z,100693.00
2018-11-20T19:28:46.603Z,100688.00
2018-11-20T19:31:43.736Z,100680.00
2018-11-20T19:34:31.128Z,100689.00
2018-11-20T19:37:25.421Z,100699.00
2018-11-20T19:40:19.870Z,100695.00
2018-11-20T19:43:11.406Z,100693.00
2018-11-20T19:45:59.737Z,100697.00
2018-11-20T19:48:50.872Z,100700.00
2018-11-20T19:52:00.838Z,100692.00
2018-11-20T19:54:42.093Z,100687.00
2018-11-20T19:57:45.597Z,100707.00
2018-11-20T20:00:26.477Z,100707.00
2018-11-20T20:03:20.767Z,100697.00
2018-11-20T20:06:12.047Z,100693.00
2018-11-20T20:09:02.945Z,100702.00
2018-11-20T20:11:49.612Z,100695.00
2018-11-20T20:14:40.400Z,100707.00
2018-11-20T20:17:27.221Z,100700.00
2018-11-20T20:20:17.859Z,100696.00
2018-11-20T20:23:04.617Z,100701.00
2018-11-20T20:25:52.858Z,100649.00
2018-11-20T20:28:43.967Z,100693.00
2018-11-20T20:31:44.426Z,100697.00
2018-11-20T20:34:35.595Z,100706.00
2018-11-20T20:37:26.464Z,100705.00
2018-11-20T20:40:17.627Z,100703.00
2018-11-20T20:43:20.858Z,100706.00
2018-11-20T20:46:09.065Z,100716.00
2018-11-20T20:48:59.945Z,100720.00
2018-11-20T20:51:46.778Z,100721.00
2018-11-20T20:54:53.271Z,100733.00
2018-11-20T20:57:44.208Z,100738.00
2018-11-20T21:00:35.301Z,100728.00
2018-11-20T21:03:27.498Z,100733.00
2018-11-20T21:06:15.865Z,100755.00
2018-11-20T21:09:02.834Z,100757.00
2018-11-20T21:11:40.437Z,100756.00
2018-11-20T21:14:34.420Z,100748.00
2018-11-20T21:17:21.220Z,100754.00
2018-11-20T21:20:08.384Z,100760.00
2018-11-20T21:22:55.274Z,100772.00
2018-11-20T21:25:43.584Z,100773.00
2018-11-20T21:28:31.856Z,100780.00
2018-11-20T21:31:19.080Z,100780.00
2018-11-20T21:34:05.848Z,100782.00
2018-11-20T21:36:56.981Z,100782.00
2018-11-20T21:39:41.251Z,100798.00
2018-11-20T21:42:32.026Z,100794.00
2018-11-20T21:45:18.743Z,100792.00
2018-11-20T21:48:19.039Z,100790.00
2018-11-20T21:51:00.934Z,100785.00
2018-11-20T21:53:47.575Z,100788.00
2018-11-20T21:56:34.737Z,100781.00
2018-11-20T21:59:24.137Z,100800.00
2018-11-20T22:02:11.302Z,100781.00
2018-11-20T22:04:58.347Z,100784.00
2018-11-20T22:07:45.263Z,100801.00
2018-11-20T22:10:31.939Z,100778.00
2018-11-20T22:13:18.602Z,100788.00
2018-11-20T22:16:06.260Z,100790.00
2018-11-20T22:18:56.149Z,100792.00
2018-11-20T22:21:40.023Z,100782.00
2018-11-20T22:24:26.983Z,100785.00
2018-11-20T22:27:13.907Z,100785.00
2018-11-20T22:29:57.880Z,100799.00
2018-11-20T22:33:01.106Z,100779.00
2018-11-20T22:35:52.089Z,100788.00
2018-11-20T22:38:52.277Z,100798.00
2018-11-20T22:41:43.385Z,100808.00
2018-11-20T22:44:31.782Z,100797.00
2018-11-20T22:47:29.234Z,100809.00
2018-11-20T22:50:15.984Z,100827.00
2018-11-20T22:53:02.904Z,100810.00
2018-11-20T22:55:50.894Z,100811.00
2018-11-20T22:58:51.132Z,100813.00
2018-11-20T23:01:39.537Z,100811.00
2018-11-20T23:04:33.614Z,100812.00
2018-11-20T23:07:36.809Z,100808.00
2018-11-20T23:10:06.021Z,100807.00
2018-11-20T23:12:35.218Z,100805.00
2018-11-20T23:15:06.136Z,100804.00
2018-11-20T23:17:35.298Z,100810.00
2018-11-20T23:20:04.916Z,100815.00
2018-11-20T23:22:34.186Z,100812.00
2018-11-20T23:25:03.652Z,100814.00
2018-11-20T23:27:32.785Z,100820.00
2018-11-20T23:30:02.144Z,100816.00
2018-11-20T23:32:31.344Z,100823.00
2018-11-20T23:35:00.482Z,100821.00
2018-11-20T23:37:29.882Z,100816.00
2018-11-20T23:39:58.912Z,100818.00
2018-11-20T23:42:28.228Z,100815.00
2018-11-20T23:44:57.390Z,100816.00
2018-11-20T23:47:26.628Z,100818.00
2018-11-20T23:49:55.814Z,100817.00
2018-11-20T23:52:24.944Z,100798.00
2018-11-20T23:54:53.968Z,100804.00
2018-11-20T23:57:23.136Z,100808.00
2018-11-20T23:59:52.342Z,100798.00
